.
WxDataArchive / Data Records for 2012-11-05
2012-11-04 November 2012 2012-11-06

Data Records for Monday, 05 November 2012

Time	Temp	Chill	HIndex	Humid	Dewpt	 Wind 	HiWind	WindDir	Rain 	Barom 
-----	----	-----	------	-----	-----	------	------	-------	-----	----- 
00:00	25.4	25.4	25.4	88	22.4	0	0	---	0.00	30.188 
00:05	25.4	25.4	25.4	88	22.4	0	0	---	0.00	30.188 
00:10	25.3	25.3	25.3	88	22.3	0	0	---	0.00	30.188 
00:15	25.1	25.1	25.1	88	22.1	0	0	---	0.00	30.188 
00:20	25.0	25.0	25.0	88	22.0	0	0	---	0.00	30.188 
00:25	24.8	24.8	24.8	88	21.8	0	0	---	0.00	30.188 
00:30	24.8	24.8	24.8	88	21.8	0	0	---	0.00	30.193 
00:35	24.7	24.7	24.7	88	21.7	0	0	---	0.00	30.193 
00:40	24.7	24.7	24.7	88	21.7	0	0	---	0.00	30.193 
00:45	24.7	24.7	24.7	88	21.7	0	0	---	0.00	30.195 
00:50	24.7	24.7	24.7	88	21.7	0	0	---	0.00	30.195 
00:55	24.5	24.5	24.5	88	21.5	0	0	---	0.00	30.195 
01:00	24.4	24.4	24.4	88	21.4	0	0	---	0.00	30.192 
01:05	24.2	24.2	24.2	88	21.2	0	0	---	0.00	30.192 
01:10	24.2	24.2	24.2	88	21.2	0	0	---	0.00	30.192 
01:15	24.1	24.1	24.1	88	21.1	0	0	---	0.00	30.197 
01:20	24.1	24.1	24.1	88	21.1	0	0	---	0.00	30.197 
01:25	24.1	24.1	24.1	88	21.1	0	0	---	0.00	30.197 
01:30	23.9	23.9	23.9	88	20.9	0	0	---	0.00	30.198 
01:35	23.9	23.9	23.9	88	20.9	0	0	---	0.00	30.198 
01:40	23.9	23.9	23.9	88	20.9	0	0	---	0.00	30.198 
01:45	23.9	23.9	23.9	89	21.1	0	0	---	0.00	30.200 
01:50	23.9	23.9	23.9	89	21.1	0	0	---	0.00	30.200 
01:55	23.9	23.9	23.9	89	21.1	0	0	---	0.00	30.200 
02:00	23.8	23.8	23.8	88	20.8	0	0	---	0.00	30.197 
02:05	23.6	23.6	23.6	88	20.6	0	0	---	0.00	30.197 
02:10	23.5	23.5	23.5	88	20.5	0	0	---	0.00	30.197 
02:15	23.3	23.3	23.3	89	20.5	0	0	---	0.00	30.200 
02:20	23.2	23.2	23.2	89	20.4	0	0	---	0.00	30.200 
02:25	23.2	23.2	23.2	89	20.4	0	0	---	0.00	30.200 
02:30	23.0	23.0	23.0	89	20.3	0	0	---	0.00	30.200 
02:35	22.9	22.9	22.9	89	20.2	0	0	---	0.00	30.200 
02:40	22.9	22.9	22.9	89	20.2	0	0	---	0.00	30.200 
02:45	23.0	23.0	23.0	89	20.3	0	0	---	0.00	30.205 
02:50	23.0	23.0	23.0	89	20.3	0	0	---	0.00	30.205 
02:55	23.2	23.2	23.2	89	20.4	0	0	---	0.00	30.205 
03:00	23.2	23.2	23.2	89	20.4	0	0	---	0.00	30.204 
03:05	23.2	23.2	23.2	89	20.4	0	0	---	0.00	30.204 
03:10	23.2	23.2	23.2	89	20.4	0	0	---	0.00	30.204 
03:15	23.0	23.0	23.0	89	20.3	0	0	---	0.00	30.200 
03:20	22.9	22.9	22.9	89	20.2	0	0	---	0.00	30.200 
03:25	22.7	22.7	22.7	89	20.0	0	0	---	0.00	30.200 
03:30	22.5	22.5	22.5	89	19.8	0	0	---	0.00	30.198 
03:35	22.5	22.5	22.5	89	19.8	0	0	---	0.00	30.198 
03:40	22.4	22.4	22.4	89	19.7	0	0	---	0.00	30.198 
03:45	22.4	22.4	22.4	89	19.7	0	0	---	0.00	30.198 
03:50	22.4	22.4	22.4	89	19.7	0	0	---	0.00	30.198 
03:55	22.2	22.2	22.2	89	19.5	0	0	---	0.00	30.198 
04:00	22.2	22.2	22.2	89	19.5	0	0	---	0.00	30.199 
04:05	22.1	22.1	22.1	89	19.4	0	0	---	0.00	30.199 
04:10	22.1	22.1	22.1	89	19.4	0	0	---	0.00	30.199 
04:15	21.9	21.9	21.9	89	19.2	0	0	---	0.00	30.200 
04:20	21.9	21.9	21.9	89	19.2	0	0	---	0.00	30.200 
04:25	21.9	21.9	21.9	89	19.2	0	0	---	0.00	30.200 
04:30	21.9	21.9	21.9	89	19.2	0	0	---	0.00	30.203 
04:35	21.9	21.9	21.9	89	19.2	0	0	---	0.00	30.203 
04:40	21.9	21.9	21.9	89	19.2	0	0	---	0.00	30.203 
04:45	21.9	21.9	21.9	89	19.2	0	0	---	0.00	30.209 
04:50	21.9	21.9	21.9	89	19.2	0	0	---	0.00	30.209 
04:55	21.8	21.8	21.8	89	19.1	0	0	---	0.00	30.209 
05:00	21.8	21.8	21.8	89	19.1	0	0	---	0.00	30.213 
05:05	21.6	21.6	21.6	89	18.9	0	0	---	0.00	30.213 
05:10	21.6	21.6	21.6	89	18.9	0	0	---	0.00	30.213 
05:15	21.4	21.4	21.4	89	18.7	0	0	---	0.00	30.218 
05:20	21.3	21.3	21.3	89	18.6	0	0	---	0.00	30.218 
05:25	21.3	21.3	21.3	89	18.6	0	0	---	0.00	30.218 
05:30	21.1	21.1	21.1	89	18.4	0	0	---	0.00	30.217 
05:35	21.1	21.1	21.1	89	18.4	0	0	---	0.00	30.217 
05:40	21.0	21.0	21.0	89	18.3	0	0	---	0.00	30.217 
05:45	21.0	21.0	21.0	89	18.3	0	0	---	0.00	30.219 
05:50	21.0	21.0	21.0	89	18.3	0	0	---	0.00	30.219 
05:55	21.0	21.0	21.0	89	18.3	0	0	---	0.00	30.219 
06:00	21.0	21.0	21.0	89	18.3	0	0	---	0.00	30.219 
06:05	20.8	20.8	20.8	89	18.1	0	0	---	0.00	30.219 
06:10	20.8	20.8	20.8	89	18.1	0	0	---	0.00	30.219 
06:15	20.6	20.6	20.6	89	17.9	0	0	---	0.00	30.221 
06:20	20.5	20.5	20.5	89	17.8	0	0	---	0.00	30.221 
06:25	20.5	20.5	20.5	89	17.8	0	0	---	0.00	30.221 
06:30	20.5	20.5	20.5	89	17.8	0	0	---	0.00	30.222 
06:35	20.5	20.5	20.5	89	17.8	0	0	---	0.00	30.222 
06:40	20.3	20.3	20.3	89	17.6	0	0	---	0.00	30.222 
06:45	20.3	20.3	20.3	89	17.6	0	0	---	0.00	30.225 
06:50	20.3	20.3	20.3	89	17.6	0	0	---	0.00	30.225 
06:55	20.5	20.5	20.5	89	17.8	0	0	---	0.00	30.225 
07:00	20.5	20.5	20.5	90	18.0	0	0	---	0.00	30.228 
07:05	20.5	20.5	20.5	89	17.8	0	0	---	0.00	30.228 
07:10	20.5	20.5	20.5	90	18.0	0	0	---	0.00	30.228 
07:15	20.5	20.5	20.5	90	18.0	0	0	---	0.00	30.230 
07:20	20.5	20.5	20.5	90	18.0	0	0	---	0.00	30.230 
07:25	20.5	20.5	20.5	89	17.8	0	0	---	0.00	30.230 
07:30	20.3	20.3	20.3	89	17.6	0	0	---	0.00	30.229 
07:35	20.5	20.5	20.5	90	18.0	0	0	---	0.00	30.229 
07:40	20.6	20.6	20.6	90	18.1	0	0	---	0.00	30.229 
07:45	20.6	20.6	20.6	90	18.1	0	0	---	0.00	30.232 
07:50	20.8	20.8	20.8	90	18.3	0	0	---	0.00	30.232 
07:55	21.0	21.0	21.0	90	18.5	0	0	---	0.00	30.232 
08:00	21.3	21.3	21.3	90	18.8	0	0	---	0.00	30.233 
08:05	21.6	21.6	21.6	90	19.1	0	0	---	0.00	30.233 
08:10	22.2	22.2	22.2	91	20.0	0	0	---	0.00	30.233 
08:15	22.9	22.9	22.9	91	20.7	0	0	---	0.00	30.233 
08:20	23.6	23.6	23.6	91	21.4	0	0	---	0.00	30.233 
08:25	24.4	24.4	24.4	91	22.2	0	0	---	0.00	30.233 
08:30	25.4	25.4	25.4	92	23.4	0	0	---	0.00	30.229 
08:35	26.4	26.4	26.4	92	24.4	0	0	---	0.00	30.229 
08:40	27.3	27.3	27.3	92	25.3	0	1	292	0.00	30.229 
08:45	28.4	28.4	28.4	92	26.4	0	0	---	0.00	30.229 
08:50	29.0	29.0	29.0	91	26.7	0	2	292	0.00	30.229 
08:55	29.7	29.7	29.7	90	27.1	0	3	292	0.00	30.229 
09:00	30.6	30.6	30.6	88	27.5	0	3	292	0.00	30.232 
09:05	31.5	31.5	31.5	85	27.5	0	2	292	0.00	30.232 
09:10	32.2	32.2	32.2	84	27.9	0	2	292	0.00	30.232 
09:15	32.9	32.9	32.9	81	27.7	0	3	292	0.00	30.229 
09:20	33.5	33.5	33.5	77	27.1	1	3	292	0.00	30.229 
09:25	34.1	34.1	34.1	77	27.7	0	1	292	0.00	30.229 
09:30	34.7	34.7	34.7	77	28.2	0	2	292	0.00	30.228 
09:35	35.2	35.2	35.2	76	28.4	0	3	292	0.00	30.228 
09:40	35.6	35.6	35.6	73	27.8	1	2	292	0.00	30.228 
09:45	35.6	35.6	35.6	72	27.5	2	4	68	0.00	30.227 
09:50	35.6	35.6	35.6	73	27.8	1	3	68	0.00	30.227 
09:55	35.9	35.9	35.9	73	28.1	1	3	68	0.00	30.227 
10:00	36.0	36.0	36.0	73	28.2	1	3	68	0.00	30.227 
10:05	36.2	36.2	36.2	73	28.4	1	4	68	0.00	30.227 
10:10	36.2	36.2	36.2	72	28.1	2	4	68	0.00	30.227 
10:15	36.2	36.2	36.2	73	28.4	1	5	68	0.00	30.230 
10:20	36.0	36.0	36.0	72	27.9	2	6	112	0.00	30.230 
10:25	36.2	36.2	36.2	73	28.4	2	4	112	0.00	30.230 
10:30	36.3	36.3	36.3	72	28.2	2	5	112	0.00	30.231 
10:35	36.3	36.3	36.3	71	27.8	2	5	90	0.00	30.231 
10:40	36.5	36.5	36.5	70	27.7	2	6	90	0.00	30.231 
10:45	36.8	36.8	36.8	72	28.6	0	3	90	0.00	30.231 
10:50	37.2	37.2	37.2	71	28.7	1	3	90	0.00	30.231 
10:55	37.5	37.5	37.5	70	28.6	1	4	90	0.00	30.231 
11:00	37.8	37.8	37.8	70	28.9	0	3	90	0.00	30.229 
11:05	38.0	38.0	38.0	68	28.4	1	4	90	0.00	30.229 
11:10	38.3	38.3	38.3	68	28.7	0	2	90	0.00	30.229 
11:15	38.3	38.3	38.3	66	28.0	2	6	90	0.00	30.233 
11:20	38.0	38.0	38.0	66	27.7	2	4	90	0.00	30.233 
11:25	37.6	37.6	37.6	66	27.3	1	5	90	0.00	30.233 
11:30	37.3	37.3	37.3	65	26.6	0	2	90	0.00	30.231 
11:35	37.3	37.3	37.3	64	26.3	1	4	90	0.00	30.231 
11:40	37.6	37.6	37.6	65	26.9	2	5	90	0.00	30.231 
11:45	38.0	38.0	38.0	64	26.9	2	5	90	0.00	30.229 
11:50	38.2	38.2	38.2	63	26.7	1	3	90	0.00	30.229 
11:55	38.2	38.2	38.2	64	27.1	1	5	90	0.00	30.229 
12:00	38.3	38.3	38.3	63	26.8	2	5	90	0.00	30.218 
12:05	38.5	38.5	38.5	62	26.6	1	5	90	0.00	30.218 
12:10	38.8	38.8	38.8	62	26.9	1	4	90	0.00	30.218 
12:15	39.1	39.1	39.1	63	27.6	1	4	90	0.00	30.212 
12:20	39.3	39.3	39.3	61	27.0	0	3	90	0.00	30.212 
12:25	39.8	39.8	39.8	62	27.9	0	3	90	0.00	30.212 
12:30	39.9	39.9	39.9	60	27.2	1	4	90	0.00	30.201 
12:35	39.6	39.6	39.6	61	27.3	0	1	90	0.00	30.201 
12:40	39.8	39.8	39.8	61	27.5	0	4	90	0.00	30.201 
12:45	40.2	40.2	40.2	63	28.6	1	5	90	0.00	30.194 
12:50	40.3	40.3	40.3	60	27.5	1	4	90	0.00	30.194 
12:55	40.3	40.3	40.3	61	27.9	1	3	90	0.00	30.194 
13:00	40.5	40.5	40.5	59	27.3	0	3	90	0.00	30.190 
13:05	40.3	40.3	40.3	60	27.5	0	2	90	0.00	30.190 
13:10	40.6	40.6	40.6	60	27.8	0	2	90	0.00	30.190 
13:15	40.9	40.9	40.9	60	28.1	1	5	90	0.00	30.183 
13:20	41.2	41.2	41.2	58	27.6	2	4	90	0.00	30.183 
13:25	41.6	41.6	41.6	58	27.9	0	3	90	0.00	30.183 
13:30	41.9	41.9	41.9	58	28.2	1	3	90	0.00	30.179 
13:35	42.1	42.1	42.1	57	28.0	1	3	90	0.00	30.179 
13:40	41.9	41.9	41.9	58	28.2	1	7	90	0.00	30.179 
13:45	41.6	41.6	41.6	58	27.9	0	3	90	0.00	30.177 
13:50	41.5	41.5	41.5	56	27.0	1	4	90	0.00	30.177 
13:55	41.5	41.5	41.5	56	27.0	1	5	90	0.00	30.177 
14:00	41.6	41.6	41.6	58	27.9	2	9	90	0.00	30.172 
14:05	41.8	41.8	41.8	56	27.3	1	5	90	0.00	30.172 
14:10	41.6	41.6	41.6	57	27.5	1	5	90	0.00	30.172 
14:15	41.6	41.6	41.6	55	26.6	1	4	90	0.00	30.168 
14:20	41.5	41.5	41.5	56	27.0	2	7	90	0.00	30.168 
14:25	41.6	41.6	41.6	56	27.1	2	10	112	0.00	30.168 
14:30	41.8	41.8	41.8	56	27.3	1	6	90	0.00	30.166 
14:35	41.9	41.9	41.9	55	26.9	3	9	90	0.00	30.166 
14:40	41.9	41.9	41.9	56	27.4	2	5	90	0.00	30.166 
14:45	41.9	41.9	41.9	56	27.4	1	5	90	0.00	30.164 
14:50	42.2	42.2	42.2	55	27.2	1	5	90	0.00	30.164 
14:55	42.2	42.2	42.2	54	26.8	1	4	90	0.00	30.164 
15:00	42.2	42.2	42.2	54	26.8	1	5	90	0.00	30.164 
15:05	42.3	42.3	42.3	54	26.9	1	6	90	0.00	30.164 
15:10	42.2	42.2	42.2	54	26.8	2	4	90	0.00	30.164 
15:15	42.1	42.1	42.1	55	27.1	2	6	90	0.00	30.162 
15:20	42.2	42.2	42.2	55	27.2	2	4	90	0.00	30.162 
15:25	42.1	42.1	42.1	54	26.7	2	5	90	0.00	30.162 
15:30	42.1	42.1	42.1	54	26.7	2	6	90	0.00	30.159 
15:35	42.2	42.2	42.2	55	27.2	1	4	112	0.00	30.159 
15:40	42.2	42.2	42.2	54	26.8	3	7	112	0.00	30.159 
15:45	42.2	42.2	42.2	54	26.8	1	4	90	0.00	30.163 
15:50	42.1	42.1	42.1	55	27.1	2	6	90	0.00	30.163 
15:55	42.1	42.1	42.1	55	27.1	1	5	90	0.00	30.163 
16:00	42.1	42.1	42.1	55	27.1	2	5	90	0.00	30.162 
16:05	41.9	41.9	41.9	55	26.9	2	5	90	0.00	30.162 
16:10	41.8	41.8	41.8	55	26.8	3	9	112	0.00	30.162 
16:15	41.6	41.6	41.6	54	26.2	3	7	90	0.00	30.163 
16:20	41.6	41.6	41.6	55	26.6	2	5	90	0.00	30.163 
16:25	41.5	41.5	41.5	55	26.6	2	4	112	0.00	30.163 
16:30	41.3	41.3	41.3	56	26.8	1	2	68	0.00	30.162 
16:35	41.2	41.2	41.2	56	26.7	2	5	68	0.00	30.162 
16:40	41.1	41.1	41.1	55	26.2	2	5	68	0.00	30.162 
16:45	41.1	41.1	41.1	55	26.2	2	5	90	0.00	30.165 
16:50	40.9	40.9	40.9	56	26.4	2	4	90	0.00	30.165 
16:55	40.6	40.6	40.6	57	26.6	1	4	90	0.00	30.165 
17:00	40.5	40.5	40.5	57	26.5	0	1	68	0.00	30.164 
17:05	40.3	40.3	40.3	58	26.7	1	5	68	0.00	30.164 
17:10	40.2	40.2	40.2	58	26.6	1	4	90	0.00	30.164 
17:15	40.1	40.1	40.1	58	26.5	1	5	90	0.00	30.166 
17:20	39.9	39.9	39.9	59	26.7	1	3	90	0.00	30.166 
17:25	39.6	39.6	39.6	59	26.5	0	1	90	0.00	30.166 
17:30	39.3	39.3	39.3	60	26.6	0	0	---	0.00	30.166 
17:35	38.9	38.9	38.9	60	26.2	0	0	---	0.00	30.166 
17:40	38.5	38.5	38.5	61	26.2	0	1	90	0.00	30.166 
17:45	38.0	38.0	38.0	62	26.2	0	0	---	0.00	30.170 
17:50	37.6	37.6	37.6	62	25.8	0	0	---	0.00	30.170 
17:55	37.2	37.2	37.2	63	25.8	0	0	---	0.00	30.170 
18:00	36.8	36.8	36.8	64	25.8	0	0	---	0.00	30.171 
18:05	36.3	36.3	36.3	65	25.7	0	0	---	0.00	30.171 
18:10	36.0	36.0	36.0	65	25.4	0	0	---	0.00	30.171 
18:15	35.8	35.8	35.8	66	25.6	0	0	---	0.00	30.178 
18:20	35.5	35.5	35.5	67	25.6	0	0	---	0.00	30.178 
18:25	35.2	35.2	35.2	68	25.7	0	0	---	0.00	30.178 
18:30	35.0	35.0	35.0	68	25.5	0	0	---	0.00	30.185 
18:35	34.7	34.7	34.7	69	25.6	0	0	---	0.00	30.185 
18:40	34.4	34.4	34.4	69	25.3	0	0	---	0.00	30.185 
18:45	34.3	34.3	34.3	70	25.5	0	0	---	0.00	30.189 
18:50	34.0	34.0	34.0	70	25.3	0	0	---	0.00	30.189 
18:55	33.7	33.7	33.7	71	25.3	0	0	---	0.00	30.189 
19:00	33.4	33.4	33.4	72	25.4	0	0	---	0.00	30.187 
19:05	32.9	32.9	32.9	72	24.9	0	0	---	0.00	30.187 
19:10	32.7	32.7	32.7	73	25.0	0	0	---	0.00	30.187 
19:15	32.4	32.4	32.4	73	24.7	0	0	---	0.00	30.186 
19:20	32.1	32.1	32.1	74	24.8	0	0	---	0.00	30.186 
19:25	31.8	31.8	31.8	75	24.8	0	0	---	0.00	30.186 
19:30	31.6	31.6	31.6	76	24.9	0	0	---	0.00	30.189 
19:35	31.5	31.5	31.5	77	25.1	0	0	---	0.00	30.189 
19:40	31.2	31.2	31.2	77	24.8	0	0	---	0.00	30.189 
19:45	31.0	31.0	31.0	78	25.0	0	0	---	0.00	30.182 
19:50	30.9	30.9	30.9	78	24.9	0	0	---	0.00	30.182 
19:55	30.7	30.7	30.7	78	24.7	0	0	---	0.00	30.182 
20:00	30.6	30.6	30.6	79	24.9	0	0	---	0.00	30.178 
20:05	30.3	30.3	30.3	79	24.6	0	0	---	0.00	30.178 
20:10	30.1	30.1	30.1	79	24.4	0	0	---	0.00	30.178 
20:15	30.0	30.0	30.0	80	24.6	0	0	---	0.00	30.176 
20:20	30.0	30.0	30.0	80	24.6	0	0	---	0.00	30.176 
20:25	30.0	30.0	30.0	80	24.6	0	0	---	0.00	30.176 
20:30	29.8	29.8	29.8	80	24.4	0	0	---	0.00	30.184 
20:35	29.7	29.7	29.7	81	24.6	0	0	---	0.00	30.184 
20:40	29.4	29.4	29.4	81	24.3	0	0	---	0.00	30.184 
20:45	29.4	29.4	29.4	81	24.3	0	0	---	0.00	30.184 
20:50	29.4	29.4	29.4	82	24.6	0	0	---	0.00	30.184 
20:55	29.7	29.7	29.7	82	24.9	0	0	---	0.00	30.184 
21:00	30.0	30.0	30.0	81	24.9	0	0	---	0.00	30.185 
21:05	30.3	30.3	30.3	81	25.2	0	0	---	0.00	30.185 
21:10	30.6	30.6	30.6	80	25.2	0	0	---	0.00	30.185 
21:15	30.9	30.9	30.9	79	25.2	0	0	---	0.00	30.180 
21:20	30.9	30.9	30.9	78	24.9	0	0	---	0.00	30.180 
21:25	30.7	30.7	30.7	78	24.7	0	0	---	0.00	30.180 
21:30	30.7	30.7	30.7	78	24.7	0	0	---	0.00	30.178 
21:35	30.7	30.7	30.7	77	24.4	0	0	---	0.00	30.178 
21:40	30.6	30.6	30.6	77	24.3	0	0	---	0.00	30.178 
21:45	30.3	30.3	30.3	77	24.0	0	0	---	0.00	30.178 
21:50	30.1	30.1	30.1	78	24.1	0	0	---	0.00	30.178 
21:55	30.0	30.0	30.0	78	24.0	0	0	---	0.00	30.178 
22:00	29.7	29.7	29.7	78	23.7	0	0	---	0.00	30.180 
22:05	29.5	29.5	29.5	79	23.8	0	0	---	0.00	30.180 
22:10	29.4	29.4	29.4	79	23.7	0	0	---	0.00	30.180 
22:15	29.3	29.3	29.3	80	23.9	0	0	---	0.00	30.179 
22:20	29.1	29.1	29.1	80	23.7	0	0	---	0.00	30.179 
22:25	29.0	29.0	29.0	81	23.9	0	0	---	0.00	30.179 
22:30	28.8	28.8	28.8	81	23.7	0	0	---	0.00	30.180 
22:35	28.7	28.7	28.7	81	23.6	0	0	---	0.00	30.180 
22:40	28.5	28.5	28.5	81	23.4	0	0	---	0.00	30.180 
22:45	28.4	28.4	28.4	82	23.6	0	0	---	0.00	30.178 
22:50	28.2	28.2	28.2	82	23.4	0	0	---	0.00	30.178 
22:55	28.1	28.1	28.1	82	23.3	0	0	---	0.00	30.178 
23:00	27.9	27.9	27.9	82	23.1	0	0	---	0.00	30.168 
23:05	27.9	27.9	27.9	83	23.4	0	0	---	0.00	30.168 
23:10	27.9	27.9	27.9	84	23.7	0	0	---	0.00	30.168 
23:15	27.8	27.8	27.8	84	23.6	0	0	---	0.00	30.165 
23:20	27.8	27.8	27.8	84	23.6	0	0	---	0.00	30.165 
23:25	27.8	27.8	27.8	84	23.6	0	0	---	0.00	30.165 
23:30	27.9	27.9	27.9	84	23.7	0	0	---	0.00	30.161 
23:35	27.8	27.8	27.8	84	23.6	0	0	---	0.00	30.161 
23:40	27.8	27.8	27.8	84	23.6	0	0	---	0.00	30.161 
23:45	27.6	27.6	27.6	84	23.4	0	0	---	0.00	30.159 
23:50	27.3	27.3	27.3	84	23.1	0	0	---	0.00	30.159 
23:55	27.2	27.2	27.2	84	23.0	0	0	---	0.00	30.159 

CoCoRaHS
IN-AL-39
A2 Web Hosting
Creative Commons License
GoDaddy
search engine by freefind advanced

loaded 2018-11-13 17:09:59 • last modified 2010-11-18 10:43:29
Privacy PolicyDisclaimer
• wx.awcolley.com is powered by PmWiki v.2002016 •
• all content (unless otherwise noted) © 2018 A W Colley